Weather at Chirundu Airport

Public forecast

Using degrees Celsius for public forecast. Weather courtesy of forecast.io.

Closest aviation weather report (METAR) to Chirundu Airport

Report is more than 6 hours old.

Closest report is Kariba International Airport, 31.3 nm (58.0 km) S. Retrieved 2020/09/02 12:00 UTC (16 days ago):

FVKB 021200Z 08009KT CAVOK 32/13 Q1017 NOSIG

Closest aviation forecast (TAF) to Chirundu Airport

Forecast is more than 12 hours old.

Closest forecast is Royal Zambesi Lodge Airstrip, 28.5 nm (52.7 km) NE. Retrieved 2020/09/17 18:00 UTC (23 hours ago):

TAF FLRZ 171600Z 1718/1824 10010KT CAVOK BECMG 1805/1808 09005G15KT 8000 HZ NSC BECMG 1811/1713 09010KT FEW030